Time;durP1;ratioP1;P1;durP2;ratioP2;P2;SDS_P1;SDS_P2;PMS_P1;PMS_P2;Temp;Humidity;BMP_temperature;BMP_pressure;BME280_temperature;BME280_humidity;BME280_pressure;Samples;Min_cycle;Max_cycle;Signal;HPM_P1;HPM_P2
2022/11/28 00:01:40;;;;;;;54.50;42.20;;;;;;;5.22;75.78;101403.17;106896;1306;22058;-75
2022/11/28 00:04:07;;;;;;;60.60;43.20;;;;;;;5.28;75.78;101407.73;106904;1306;22094;-76
2022/11/28 00:06:40;;;;;;;58.20;42.90;;;;;;;5.34;75.77;101408.40;106851;1306;22134;-75
2022/11/28 00:09:07;;;;;;;57.30;42.00;;;;;;;5.36;75.80;101402.55;106856;1306;22821;-74
2022/11/28 00:11:34;;;;;;;56.40;43.60;;;;;;;5.41;75.47;101404.94;106879;1300;22123;-72
2022/11/28 00:14:01;;;;;;;61.00;44.40;;;;;;;5.31;74.67;101406.40;106856;1305;22172;-74
2022/11/28 00:16:28;;;;;;;58.70;44.10;;;;;;;5.18;74.94;101401.16;106873;1306;22303;-76
2022/11/28 00:18:55;;;;;;;58.90;43.10;;;;;;;5.16;74.93;101403.88;106900;1306;22199;-76
2022/11/28 00:21:22;;;;;;;54.90;41.40;;;;;;;5.11;75.07;101403.73;106516;1309;22290;-75
2022/11/28 00:23:49;;;;;;;57.00;41.80;;;;;;;5.07;75.09;101400.30;106514;1309;22093;-76
2022/11/28 00:26:38;;;;;;;56.90;41.20;;;;;;;5.05;75.17;101404.41;106527;1309;22117;-76
2022/11/28 00:29:06;;;;;;;54.50;40.60;;;;;;;5.10;75.48;101402.63;106486;1309;22191;-81
2022/11/28 00:31:40;;;;;;;58.20;43.50;;;;;;;5.14;75.70;101402.27;106595;1306;22935;-76
2022/11/28 00:34:12;;;;;;;54.70;40.20;;;;;;;5.22;75.73;101401.96;106619;1309;22107;-76
2022/11/28 00:36:39;;;;;;;57.20;42.30;;;;;;;5.27;75.53;101398.26;106606;1309;22804;-76
2022/11/28 00:39:06;;;;;;;59.10;41.10;;;;;;;5.29;75.44;101400.92;106579;1306;22653;-80
2022/11/28 00:41:34;;;;;;;64.40;44.80;;;;;;;5.29;75.36;101398.31;106880;1306;22102;-75
2022/11/28 00:44:00;;;;;;;58.10;44.20;;;;;;;5.30;75.27;101398.35;106836;1306;22152;-74
2022/11/28 00:46:27;;;;;;;64.60;45.20;;;;;;;5.30;75.21;101397.48;106900;1306;22130;-73
2022/11/28 00:48:54;;;;;;;62.50;45.50;;;;;;;5.34;75.27;101392.52;106854;1306;22072;-73
2022/11/28 00:51:24;;;;;;;65.00;46.30;;;;;;;5.37;75.34;101389.46;106892;1306;22095;-73
2022/11/28 00:53:52;;;;;;;63.60;48.90;;;;;;;5.40;75.27;101390.42;106860;1306;22113;-73
2022/11/28 00:56:22;;;;;;;65.00;48.10;;;;;;;5.43;75.14;101389.63;106816;1306;22087;-75
2022/11/28 00:58:49;;;;;;;64.60;46.80;;;;;;;5.42;75.21;101386.11;106929;1305;22341;-74
2022/11/28 01:01:19;;;;;;;64.30;47.80;;;;;;;5.42;75.17;101387.67;106890;1304;22201;-74
2022/11/28 01:03:47;;;;;;;66.50;47.70;;;;;;;5.42;75.28;101386.82;106898;1305;22047;-73
2022/11/28 01:06:29;;;;;;;73.20;50.70;;;;;;;5.40;75.19;101380.80;106810;1306;22161;-73
2022/11/28 01:09:02;;;;;;;64.70;48.40;;;;;;;5.38;75.28;101385.48;106829;1306;22149;-72
2022/11/28 01:11:29;;;;;;;64.70;47.80;;;;;;;5.39;75.21;101378.50;106718;1293;22072;-73
2022/11/28 01:13:58;;;;;;;67.20;48.50;;;;;;;5.41;75.23;101380.33;106835;1306;22167;-73
2022/11/28 01:16:26;;;;;;;69.40;49.90;;;;;;;5.44;75.18;101379.70;106857;1306;22176;-73
2022/11/28 01:18:53;;;;;;;65.90;49.50;;;;;;;5.45;75.14;101381.48;106909;1304;22025;-74
2022/11/28 01:21:20;;;;;;;70.50;50.00;;;;;;;5.44;75.14;101379.52;106969;1304;22138;-74
2022/11/28 01:23:47;;;;;;;68.00;49.90;;;;;;;5.44;74.99;101377.96;106922;1306;22147;-74
2022/11/28 01:26:21;;;;;;;69.50;51.60;;;;;;;5.46;75.12;101377.82;106883;1304;22070;-75
2022/11/28 01:28:48;;;;;;;69.60;50.40;;;;;;;5.45;74.92;101379.20;106909;1298;22160;-73
2022/11/28 01:31:22;;;;;;;69.80;51.60;;;;;;;5.39;74.90;101375.71;106890;1306;22139;-73
2022/11/28 01:33:49;;;;;;;65.50;48.50;;;;;;;5.35;74.89;101371.07;106836;1306;22530;-74
2022/11/28 01:36:17;;;;;;;68.60;48.10;;;;;;;5.31;74.78;101365.20;106838;1305;22594;-74
2022/11/28 01:38:44;;;;;;;64.60;48.40;;;;;;;5.32;74.95;101362.79;106906;1306;22084;-73
2022/11/28 01:41:12;;;;;;;69.70;51.30;;;;;;;5.36;75.13;101363.41;106930;1290;22082;-73
2022/11/28 01:44:14;;;;;;;69.00;51.10;;;;;;;5.38;74.97;101359.64;106914;1306;22078;-72
2022/11/28 01:46:42;;;;;;;68.50;50.50;;;;;;;5.41;74.93;101357.61;106498;1303;22109;-74
2022/11/28 01:49:20;;;;;;;67.90;49.80;;;;;;;5.40;74.87;101354.78;106839;1306;22068;-73
2022/11/28 01:51:52;;;;;;;71.60;50.60;;;;;;;5.38;74.85;101352.62;106871;1306;22141;-74
2022/11/28 01:54:22;;;;;;;69.40;52.00;;;;;;;5.36;74.81;101348.22;106824;1306;22191;-74
2022/11/28 01:56:57;;;;;;;69.40;49.80;;;;;;;5.34;74.89;101345.01;106700;1305;22036;-74
2022/11/28 01:59:28;;;;;;;63.70;48.60;;;;;;;5.32;74.82;101344.08;106667;1305;22183;-74
2022/11/28 02:01:55;;;;;;;64.60;48.50;;;;;;;5.33;74.96;101337.83;106875;1306;22147;-74
2022/11/28 02:04:25;;;;;;;66.20;48.80;;;;;;;5.37;75.01;101339.14;106807;1306;22253;-74
2022/11/28 02:06:54;;;;;;;67.70;49.50;;;;;;;5.41;74.97;101335.06;106906;1304;22744;-73
2022/11/28 02:09:20;;;;;;;69.60;50.50;;;;;;;5.44;74.81;101329.39;106794;1306;22172;-75
2022/11/28 02:12:20;;;;;;;67.20;49.60;;;;;;;5.45;74.71;101326.97;106835;1306;22795;-75
2022/11/28 02:14:52;;;;;;;68.20;49.00;;;;;;;5.42;74.59;101327.42;106683;1305;22099;-73
2022/11/28 02:17:44;;;;;;;72.70;51.70;;;;;;;5.41;74.55;101329.48;106808;1305;22147;-74
2022/11/28 02:20:49;;;;;;;69.50;49.70;;;;;;;5.41;74.53;101328.59;106875;1305;22800;-75
2022/11/28 02:23:29;;;;;;;62.00;47.50;;;;;;;5.38;74.58;101324.02;106801;1306;22100;-82
2022/11/28 02:26:26;;;;;;;71.80;50.00;;;;;;;5.37;74.41;101324.13;106862;1299;22073;-81
2022/11/28 02:29:22;;;;;;;75.20;48.50;;;;;;;5.34;74.38;101325.61;106870;1306;22092;-77
2022/11/28 02:32:26;;;;;;;65.50;46.40;;;;;;;5.37;74.49;101323.59;106553;1306;22164;-78
2022/11/28 02:35:11;;;;;;;72.80;49.00;;;;;;;5.34;74.29;101322.48;106919;1306;22108;-77
2022/11/28 02:38:03;;;;;;;65.80;48.70;;;;;;;5.35;74.35;101322.16;106847;1306;22123;-76
2022/11/28 02:40:52;;;;;;;70.70;48.80;;;;;;;5.37;74.34;101318.88;106858;1306;22187;-77
2022/11/28 02:43:26;;;;;;;73.40;50.80;;;;;;;5.37;74.21;101319.05;106891;1305;22076;-77
2022/11/28 02:46:03;;;;;;;75.30;51.70;;;;;;;5.30;74.13;101319.05;106959;1305;22182;-77
2022/11/28 02:48:48;;;;;;;68.20;48.90;;;;;;;5.30;74.39;101313.98;106910;1305;22209;-78
2022/11/28 02:51:27;;;;;;;71.10;49.20;;;;;;;5.30;74.27;101313.80;106984;1283;22131;-77
2022/11/28 02:53:55;;;;;;;70.50;50.80;;;;;;;5.28;74.30;101312.00;106756;1306;22134;-72
2022/11/28 02:56:23;;;;;;;66.80;48.30;;;;;;;5.27;74.18;101309.71;106932;1306;22082;-74
2022/11/28 02:58:51;;;;;;;65.50;47.30;;;;;;;5.30;74.23;101308.91;106966;1301;22083;-74
2022/11/28 03:01:21;;;;;;;70.10;48.60;;;;;;;5.30;74.15;101311.19;106641;1310;22139;-71
2022/11/28 03:04:15;;;;;;;63.90;48.40;;;;;;;5.30;74.27;101309.80;106532;1309;22194;-71
2022/11/28 03:07:15;;;;;;;74.30;49.10;;;;;;;5.30;74.10;101311.19;106488;1310;22108;-70
2022/11/28 03:10:02;;;;;;;72.10;48.90;;;;;;;5.29;74.14;101303.48;106686;1293;22212;-75
2022/11/28 03:12:47;;;;;;;66.00;46.70;;;;;;;5.29;74.06;101295.95;106714;1309;22236;-74
2022/11/28 03:15:20;;;;;;;69.30;49.30;;;;;;;5.25;74.12;101292.89;106813;1303;22153;-74
2022/11/28 03:18:02;;;;;;;68.60;46.40;;;;;;;5.22;73.94;101291.05;106763;1309;22136;-73
2022/11/28 03:20:55;;;;;;;61.30;46.10;;;;;;;5.16;73.92;101296.66;106886;1305;22252;-72
2022/11/28 03:23:35;;;;;;;62.90;46.00;;;;;;;5.14;73.96;101294.34;107078;1305;22073;-76
2022/11/28 03:26:26;;;;;;;61.50;44.20;;;;;;;5.15;73.92;101294.19;107018;1305;22093;-74
2022/11/28 03:29:05;;;;;;;64.80;44.60;;;;;;;5.18;74.04;101297.23;106901;1306;22138;-72
2022/11/28 03:31:37;;;;;;;60.90;44.50;;;;;;;5.18;73.83;101300.20;106911;1305;22065;-74
2022/11/28 03:34:09;;;;;;;60.80;45.50;;;;;;;5.16;73.88;101300.67;106871;1303;22137;-73
2022/11/28 03:36:49;;;;;;;63.00;47.20;;;;;;;5.11;73.65;101302.98;106701;1306;23076;-74
2022/11/28 03:39:23;;;;;;;61.70;45.00;;;;;;;5.03;73.63;101303.98;106871;1305;22084;-73
2022/11/28 03:42:10;;;;;;;63.40;46.40;;;;;;;5.00;73.81;101299.86;106860;1305;22067;-73
2022/11/28 03:44:44;;;;;;;66.80;47.20;;;;;;;4.95;73.72;101299.92;106767;1305;23057;-73
2022/11/28 03:47:11;;;;;;;66.90;46.40;;;;;;;4.91;73.72;101299.65;106346;1311;22246;-73
2022/11/28 03:49:42;;;;;;;63.80;45.00;;;;;;;4.87;73.73;101297.60;106359;1311;22867;-73
2022/11/28 03:52:17;;;;;;;63.90;44.20;;;;;;;4.87;73.86;101295.51;106475;1311;22301;-74
2022/11/28 03:54:55;;;;;;;59.60;42.80;;;;;;;4.89;73.93;101291.73;106244;1311;22181;-75
2022/11/28 03:57:37;;;;;;;58.80;43.50;;;;;;;4.93;74.05;101290.27;106469;1311;22263;-73
2022/11/28 04:00:10;;;;;;;62.30;43.90;;;;;;;4.96;74.13;101290.16;106270;1312;22876;-72
2022/11/28 04:03:01;;;;;;;64.40;45.90;;;;;;;4.93;73.75;101287.81;106458;1311;22032;-73
2022/11/28 04:05:52;;;;;;;64.40;45.50;;;;;;;4.89;73.84;101288.92;106648;1305;22197;-72
2022/11/28 04:08:43;;;;;;;62.50;46.30;;;;;;;4.89;74.01;101288.05;106833;1306;22057;-71
2022/11/28 04:11:21;;;;;;;63.00;44.80;;;;;;;4.91;74.03;101288.65;106780;1306;22061;-72
2022/11/28 04:14:06;;;;;;;63.00;45.70;;;;;;;4.91;73.99;101284.44;106831;1305;22069;-73
2022/11/28 04:16:39;;;;;;;66.00;44.60;;;;;;;4.91;74.05;101288.48;106858;1306;22202;-73
2022/11/28 04:19:14;;;;;;;59.60;43.30;;;;;;;4.94;74.13;101285.59;106906;1305;22823;-74
2022/11/28 04:21:54;;;;;;;62.90;44.40;;;;;;;4.98;74.18;101287.61;106910;1300;21948;-73
2022/11/28 04:24:28;;;;;;;63.30;45.00;;;;;;;4.99;74.03;101286.39;106896;1306;22748;-73
2022/11/28 04:27:00;;;;;;;63.10;47.50;;;;;;;5.03;74.23;101283.20;106897;1306;22104;-73
2022/11/28 04:29:33;;;;;;;60.90;46.70;;;;;;;5.07;74.08;101276.68;106867;1306;22122;-80
2022/11/28 04:32:02;;;;;;;62.80;45.20;;;;;;;5.05;73.85;101279.08;106893;1304;22207;-72
2022/11/28 04:34:32;;;;;;;65.30;47.30;;;;;;;5.00;73.72;101279.27;106718;1294;22085;-74
2022/11/28 04:37:00;;;;;;;65.30;46.20;;;;;;;4.92;73.78;101278.73;106862;1290;22872;-73
2022/11/28 04:39:37;;;;;;;64.40;46.90;;;;;;;4.90;74.06;101279.34;106898;1305;22272;-74
2022/11/28 04:42:12;;;;;;;68.10;45.30;;;;;;;4.89;73.89;101277.41;106865;1305;22085;-72
2022/11/28 04:44:55;;;;;;;64.40;44.20;;;;;;;4.89;74.10;101276.52;106865;1297;22237;-73
2022/11/28 04:47:23;;;;;;;66.80;46.40;;;;;;;4.89;73.95;101276.89;106874;1297;22125;-72
2022/11/28 04:49:51;;;;;;;69.20;46.30;;;;;;;4.85;73.90;101278.33;106838;1306;22101;-72
2022/11/28 04:52:25;;;;;;;68.20;46.10;;;;;;;4.83;74.10;101278.27;106732;1306;22137;-73
2022/11/28 04:55:06;;;;;;;62.20;45.30;;;;;;;4.80;74.08;101278.36;106856;1306;22154;-74
2022/11/28 04:57:49;;;;;;;60.90;44.90;;;;;;;4.78;74.12;101276.55;106799;1306;22106;-72
2022/11/28 05:00:22;;;;;;;59.70;42.90;;;;;;;4.75;73.96;101276.83;106923;1306;22780;-72
2022/11/28 05:02:52;;;;;;;59.20;42.00;;;;;;;4.68;73.68;101281.85;106836;1304;22152;-74
2022/11/28 05:05:22;;;;;;;57.20;41.30;;;;;;;4.61;74.05;101285.84;106731;1305;22821;-73
2022/11/28 05:07:49;;;;;;;57.80;42.40;;;;;;;4.63;74.20;101285.02;106725;1305;22144;-72
2022/11/28 05:10:16;;;;;;;54.60;39.50;;;;;;;4.65;74.10;101283.88;106884;1305;22097;-72
2022/11/28 05:12:43;;;;;;;52.90;39.70;;;;;;;4.63;73.91;101285.56;106850;1304;22080;-73
2022/11/28 05:15:10;;;;;;;57.20;40.90;;;;;;;4.62;74.01;101281.52;106848;1305;22125;-73
2022/11/28 05:17:37;;;;;;;57.80;41.60;;;;;;;4.63;74.05;101286.94;106853;1298;22229;-73
2022/11/28 05:20:08;;;;;;;56.20;41.40;;;;;;;4.63;74.21;101284.16;106908;1305;22089;-73
2022/11/28 05:22:35;;;;;;;50.80;39.30;;;;;;;4.64;74.26;101279.85;106902;1302;22138;-75
2022/11/28 05:25:01;;;;;;;54.10;39.00;;;;;;;4.62;74.15;101281.50;106876;1306;22100;-73
2022/11/28 05:27:28;;;;;;;53.50;40.60;;;;;;;4.63;74.27;101279.45;106797;1305;22117;-72
2022/11/28 05:29:55;;;;;;;58.50;40.90;;;;;;;4.63;74.17;101280.16;106869;1305;22154;-73
2022/11/28 05:32:21;;;;;;;51.90;38.70;;;;;;;4.63;74.05;101283.80;106771;1306;23134;-72
2022/11/28 05:34:48;;;;;;;56.80;40.50;;;;;;;4.64;74.23;101281.41;106847;1306;22148;-72
2022/11/28 05:37:15;;;;;;;50.90;37.70;;;;;;;4.65;73.99;101279.85;106882;1305;22064;-72
2022/11/28 05:39:41;;;;;;;56.00;41.80;;;;;;;4.63;74.09;101279.63;106860;1300;22161;-72
2022/11/28 05:42:09;;;;;;;53.40;39.10;;;;;;;4.64;74.15;101282.09;106849;1305;22775;-76
2022/11/28 05:44:36;;;;;;;56.40;41.00;;;;;;;4.65;74.19;101289.97;106845;1305;22089;-81
2022/11/28 05:47:03;;;;;;;61.30;42.80;;;;;;;4.63;74.16;101289.39;106442;1313;22235;-78
2022/11/28 05:49:29;;;;;;;56.40;43.50;;;;;;;4.63;74.11;101287.30;106637;1312;22164;-78
2022/11/28 05:51:56;;;;;;;63.00;44.30;;;;;;;4.62;74.09;101286.39;106626;1312;22181;-80
2022/11/28 05:54:23;;;;;;;56.10;41.10;;;;;;;4.61;74.00;101284.27;106438;1312;22131;-80
2022/11/28 05:56:50;;;;;;;59.00;39.30;;;;;;;4.61;74.05;101287.92;106524;1312;22104;-79
2022/11/28 05:59:16;;;;;;;59.20;40.80;;;;;;;4.65;74.27;101284.22;106531;1311;22175;-80
2022/11/28 06:01:43;;;;;;;62.80;41.60;;;;;;;4.70;74.09;101279.82;106426;1313;22246;-81
2022/11/28 06:04:10;;;;;;;57.60;41.20;;;;;;;4.72;74.10;101278.67;106611;1310;22091;-81
2022/11/28 06:06:37;;;;;;;56.60;41.00;;;;;;;4.73;74.00;101275.02;107005;1307;22101;-82
2022/11/28 06:09:03;;;;;;;57.50;41.40;;;;;;;4.73;74.00;101273.45;106491;1298;22139;-81
2022/11/28 06:11:32;;;;;;;56.50;40.60;;;;;;;4.71;73.87;101274.27;106610;1310;22127;-80
2022/11/28 06:13:59;;;;;;;62.90;42.10;;;;;;;4.67;73.81;101272.77;106519;1309;22194;-91
2022/11/28 06:16:29;;;;;;;60.50;41.50;;;;;;;4.63;73.78;101275.44;106601;1310;22255;-81
2022/11/28 06:19:01;;;;;;;57.80;42.30;;;;;;;4.61;73.81;101275.90;106519;1304;22174;-81
2022/11/28 06:21:29;;;;;;;61.60;42.60;;;;;;;4.59;73.82;101278.81;106544;1310;22121;-81
2022/11/28 06:23:58;;;;;;;54.80;38.70;;;;;;;4.55;73.57;101278.34;105983;1316;22133;-81
2022/11/28 06:26:26;;;;;;;54.90;38.80;;;;;;;4.48;73.74;101279.70;106076;1312;22354;-81
2022/11/28 06:28:54;;;;;;;52.70;38.00;;;;;;;4.50;73.96;101276.63;106488;1312;22131;-81
2022/11/28 06:31:24;;;;;;;55.40;40.40;;;;;;;4.51;74.03;101279.45;106518;1312;22177;-81
2022/11/28 06:33:50;;;;;;;55.10;41.10;;;;;;;4.55;74.13;101278.70;106426;1312;22860;-82
2022/11/28 06:36:18;;;;;;;54.40;38.70;;;;;;;4.59;73.98;101277.08;106231;1312;22175;-81
2022/11/28 06:38:46;;;;;;;54.80;39.10;;;;;;;4.60;73.72;101276.92;106155;1315;22918;-79
2022/11/28 06:41:16;;;;;;;56.50;39.20;;;;;;;4.58;73.70;101274.76;106486;1306;22249;-80
2022/11/28 06:43:43;;;;;;;57.50;39.10;;;;;;;4.56;73.68;101278.55;106778;1306;22132;-81
2022/11/28 06:46:15;;;;;;;55.10;38.80;;;;;;;4.50;73.37;101277.86;106871;1305;22130;-80
2022/11/28 06:48:43;;;;;;;54.50;37.70;;;;;;;4.45;73.63;101282.92;106838;1305;22041;-81
2022/11/28 06:51:10;;;;;;;50.80;37.40;;;;;;;4.46;73.74;101281.21;106829;1305;22559;-80
2022/11/28 06:53:38;;;;;;;53.00;38.70;;;;;;;4.46;73.84;101282.25;106742;1306;22088;-80
2022/11/28 06:56:10;;;;;;;54.60;38.90;;;;;;;4.46;73.82;101284.54;106892;1306;22064;-80
2022/11/28 06:58:37;;;;;;;55.00;38.90;;;;;;;4.50;73.84;101291.44;106869;1306;22754;-80
2022/11/28 07:01:18;;;;;;;53.60;39.10;;;;;;;4.49;73.71;101293.16;106926;1306;22101;-80
2022/11/28 07:03:47;;;;;;;57.20;39.50;;;;;;;4.47;73.56;101293.81;106835;1306;22773;-81
2022/11/28 07:06:16;;;;;;;56.30;38.80;;;;;;;4.43;73.43;101297.19;106864;1306;22066;-80
2022/11/28 07:08:43;;;;;;;56.50;40.40;;;;;;;4.40;73.56;101298.66;106692;1306;202322;-81
2022/11/28 07:11:13;;;;;;;53.80;39.20;;;;;;;4.38;73.58;101301.54;106777;1306;22142;-81
2022/11/28 07:13:40;;;;;;;54.30;40.40;;;;;;;4.36;73.62;101298.52;106882;1306;22073;-80
2022/11/28 07:16:14;;;;;;;55.40;38.90;;;;;;;4.36;73.49;101296.79;106767;1306;22099;-80
2022/11/28 07:18:42;;;;;;;57.80;40.40;;;;;;;4.32;73.46;101301.91;106933;1305;22111;-81
2022/11/28 07:21:09;;;;;;;52.20;38.40;;;;;;;4.31;73.42;101299.24;106871;1306;22133;-81
2022/11/28 07:23:36;;;;;;;57.80;41.10;;;;;;;4.22;73.43;101295.13;106924;1305;22066;-80
2022/11/28 07:26:04;;;;;;;59.50;41.30;;;;;;;4.18;73.47;101296.75;106756;1305;22064;-80
2022/11/28 07:28:33;;;;;;;60.10;41.40;;;;;;;4.20;73.90;101295.08;106846;1306;22121;-80
2022/11/28 07:31:14;;;;;;;55.10;40.40;;;;;;;4.14;73.41;101294.54;106841;1306;22074;-80
2022/11/28 07:33:43;;;;;;;56.10;40.10;;;;;;;4.07;73.51;101289.95;106871;1306;22146;-80
2022/11/28 07:36:18;;;;;;;54.00;39.50;;;;;;;4.05;73.89;101286.05;106842;1306;22075;-80
2022/11/28 07:38:47;;;;;;;58.10;39.70;;;;;;;4.09;74.01;101287.25;106867;1306;22111;-82
2022/11/28 07:41:18;;;;;;;55.00;38.50;;;;;;;4.09;73.80;101292.11;106958;1296;22134;-79
2022/11/28 07:43:56;;;;;;;54.60;37.80;;;;;;;4.11;74.01;101292.52;106720;1306;22059;-80
2022/11/28 07:46:27;;;;;;;52.20;36.70;;;;;;;4.12;73.76;101287.16;106871;1306;22127;-80
2022/11/28 07:48:54;;;;;;;52.00;38.20;;;;;;;4.08;73.73;101291.56;106755;1306;22801;-79
2022/11/28 07:51:23;;;;;;;55.80;38.50;;;;;;;4.13;74.15;101288.77;106941;1306;22062;-80
2022/11/28 07:53:50;;;;;;;54.40;38.10;;;;;;;4.20;74.16;101286.88;106829;1306;22051;-80
2022/11/28 07:56:20;;;;;;;54.30;38.10;;;;;;;4.25;74.01;101283.88;106535;1311;22098;-80
2022/11/28 07:58:48;;;;;;;54.10;37.70;;;;;;;4.22;73.58;101282.40;106266;1311;22220;-81
2022/11/28 08:01:23;;;;;;;46.50;34.80;;;;;;;4.20;73.78;101282.89;106514;1311;22258;-80
2022/11/28 08:03:51;;;;;;;48.50;35.00;;;;;;;4.23;73.63;101285.05;106422;1306;22550;-81
2022/11/28 08:06:25;;;;;;;48.30;34.60;;;;;;;4.28;73.68;101282.94;106297;1313;22108;-80
2022/11/28 08:08:53;;;;;;;51.10;36.30;;;;;;;4.33;73.57;101283.95;106506;1311;22112;-81
2022/11/28 08:11:22;;;;;;;51.30;36.40;;;;;;;4.32;73.60;101283.58;106282;1312;22197;-79
2022/11/28 08:13:50;;;;;;;52.80;36.40;;;;;;;4.33;73.36;101279.77;106610;1305;22858;-81
2022/11/28 08:16:23;;;;;;;55.10;40.10;;;;;;;4.36;73.44;101281.45;106833;1306;22107;-80
2022/11/28 08:18:51;;;;;;;54.50;39.10;;;;;;;4.40;73.46;101281.55;106723;1305;22028;-81
2022/11/28 08:21:22;;;;;;;52.50;38.60;;;;;;;4.44;73.49;101281.33;106761;1289;22101;-80
2022/11/28 08:23:50;;;;;;;55.50;39.10;;;;;;;4.47;73.35;101280.39;106848;1305;22075;-82
2022/11/28 08:26:23;;;;;;;54.60;37.80;;;;;;;4.48;73.30;101283.03;106737;1306;22066;-80
2022/11/28 08:28:56;;;;;;;49.60;36.20;;;;;;;4.50;73.31;101285.36;106726;1305;22231;-81
2022/11/28 08:31:28;;;;;;;53.30;37.90;;;;;;;4.53;73.16;101280.55;106764;1306;22718;-80
2022/11/28 08:33:58;;;;;;;49.70;34.60;;;;;;;4.60;73.28;101281.11;106746;1306;22893;-80
2022/11/28 08:36:25;;;;;;;51.20;36.80;;;;;;;4.62;73.02;101279.42;106750;1306;22066;-79
2022/11/28 08:38:55;;;;;;;52.20;36.00;;;;;;;4.64;72.85;101279.15;106855;1306;22666;-79
2022/11/28 08:41:42;;;;;;;47.50;35.10;;;;;;;4.65;72.66;101279.87;106903;1290;22068;-80
2022/11/28 08:44:08;;;;;;;47.00;33.70;;;;;;;4.70;72.91;101280.36;106744;1306;22079;-80
2022/11/28 08:46:35;;;;;;;48.50;35.30;;;;;;;4.79;72.97;101275.03;106737;1306;22071;-79
2022/11/28 08:49:02;;;;;;;43.40;33.20;;;;;;;4.88;72.91;101273.86;106709;1306;22178;-79
2022/11/28 08:51:30;;;;;;;42.50;32.20;;;;;;;4.92;72.85;101272.61;106819;1306;22055;-80
2022/11/28 08:53:57;;;;;;;46.30;33.10;;;;;;;4.99;72.77;101275.59;106804;1306;22162;-80
2022/11/28 08:56:26;;;;;;;42.40;32.60;;;;;;;5.07;72.80;101280.01;106855;1293;22073;-80
2022/11/28 08:58:53;;;;;;;43.60;33.90;;;;;;;5.15;72.68;101273.23;106836;1306;22080;-80
2022/11/28 09:01:23;;;;;;;41.60;32.60;;;;;;;5.22;72.55;101268.37;106861;1306;22644;-80
2022/11/28 09:03:51;;;;;;;48.30;33.60;;;;;;;5.27;72.43;101270.06;106850;1306;22074;-80
2022/11/28 09:06:19;;;;;;;42.50;32.90;;;;;;;5.31;72.25;101270.51;106850;1292;22088;-80
2022/11/28 09:08:47;;;;;;;41.30;31.50;;;;;;;5.35;72.10;101267.13;106880;1306;22876;-80
2022/11/28 09:11:18;;;;;;;42.80;32.00;;;;;;;5.36;71.92;101266.27;106415;1312;22137;-80
2022/11/28 09:13:45;;;;;;;41.60;31.50;;;;;;;5.39;71.79;101263.05;106442;1311;22154;-79
2022/11/28 09:16:13;;;;;;;41.70;31.30;;;;;;;5.42;71.67;101260.84;106258;1311;22129;-79
2022/11/28 09:18:40;;;;;;;40.10;31.00;;;;;;;5.45;71.76;101263.20;106263;1312;22094;-79
2022/11/28 09:21:10;;;;;;;41.60;32.90;;;;;;;5.52;71.83;101259.36;106256;1312;22249;-80
2022/11/28 09:23:39;;;;;;;40.30;30.60;;;;;;;5.63;71.72;101254.91;106267;1311;22136;-80
2022/11/28 09:26:23;;;;;;;39.10;29.90;;;;;;;5.74;71.38;101250.98;106305;1307;22132;-80
2022/11/28 09:28:49;;;;;;;38.50;29.90;;;;;;;5.80;71.22;101247.45;106052;1313;22156;-80
2022/11/28 09:31:17;;;;;;;41.40;30.50;;;;;;;5.85;70.98;101250.39;106592;1313;22128;-80
2022/11/28 09:33:47;;;;;;;42.20;32.10;;;;;;;5.92;71.05;101250.03;106617;1301;22133;-81
2022/11/28 09:36:19;;;;;;;38.70;30.20;;;;;;;5.96;70.76;101242.41;106609;1312;22883;-81
2022/11/28 09:38:47;;;;;;;43.80;33.20;;;;;;;5.99;70.75;101248.60;106588;1313;22122;-82
2022/11/28 09:41:38;;;;;;;41.70;31.90;;;;;;;5.97;70.36;101245.77;106579;1312;22184;-81
2022/11/28 09:44:21;;;;;;;35.90;29.00;;;;;;;5.92;70.22;101243.20;106682;1310;22133;-81
2022/11/28 09:46:53;;;;;;;45.80;33.40;;;;;;;5.90;70.55;101243.86;106695;1310;22089;-81
2022/11/28 09:49:39;;;;;;;42.20;32.00;;;;;;;5.94;70.47;101240.80;106887;1306;22047;-80
2022/11/28 09:52:19;;;;;;;;;;;;;;;5.97;70.43;101239.83;106864;1310;22247;-81
2022/11/28 09:54:54;;;;;;;39.50;29.40;;;;;;;5.96;70.34;101238.05;106940;1306;22091;-80
2022/11/28 09:57:32;;;;;;;35.50;28.30;;;;;;;5.94;70.36;101236.09;106916;1306;22100;-80
2022/11/28 09:59:59;;;;;;;37.20;29.00;;;;;;;5.95;70.24;101232.95;106849;1308;22065;-80
2022/11/28 10:02:54;;;;;;;36.40;26.80;;;;;;;5.97;70.28;101230.89;106890;1308;22197;-80
2022/11/28 10:05:33;;;;;;;34.70;27.50;;;;;;;6.02;70.17;101231.72;106791;1310;22761;-80
2022/11/28 10:08:18;;;;;;;36.70;26.50;;;;;;;6.01;69.77;101229.25;106786;1307;22774;-80
2022/11/28 10:10:59;;;;;;;32.60;27.20;;;;;;;5.99;69.95;101230.60;106898;1310;22097;-80
2022/11/28 10:13:32;;;;;;;33.50;25.70;;;;;;;6.01;69.83;101225.39;106883;1309;22632;-80
2022/11/28 10:16:42;;;;;;;35.70;28.20;;;;;;;5.98;69.74;101219.73;106791;1308;22147;-80
2022/11/28 10:19:15;;;;;;;36.70;29.00;;;;;;;5.93;69.68;101217.33;106776;1309;22094;-80
2022/11/28 10:22:06;;;;;;;34.60;26.80;;;;;;;5.87;69.75;101213.89;106893;1306;22083;-81
2022/11/28 10:24:38;;;;;;;39.60;28.70;;;;;;;5.85;69.99;101213.66;106842;1307;22091;-80
2022/11/28 10:27:05;;;;;;;39.50;30.80;;;;;;;5.84;70.19;101212.95;106813;1307;22256;-81
2022/11/28 10:29:37;;;;;;;35.80;29.20;;;;;;;5.89;70.33;101209.05;106829;1309;22108;-81
2022/11/28 10:32:05;;;;;;;34.30;26.20;;;;;;;5.91;70.25;101208.90;106583;1308;22833;-81
2022/11/28 10:34:48;;;;;;;33.30;27.40;;;;;;;5.92;70.20;101206.85;106489;1310;22137;-81
2022/11/28 10:37:20;;;;;;;34.10;26.00;;;;;;;5.95;70.12;101207.61;106503;1312;22133;-80
2022/11/28 10:39:47;;;;;;;33.80;26.00;;;;;;;5.94;70.09;101206.00;106555;1310;22967;-81
2022/11/28 10:42:24;;;;;;;30.30;24.10;;;;;;;5.94;70.01;101204.61;106443;1305;22241;-81
2022/11/28 10:45:19;;;;;;;28.20;22.80;;;;;;;5.92;69.65;101206.65;106555;1310;22160;-79
2022/11/28 10:48:06;;;;;;;27.20;21.80;;;;;;;5.82;69.15;101195.94;106533;1311;22183;-81
2022/11/28 10:51:12;;;;;;;28.80;21.70;;;;;;;5.63;69.42;101200.02;106728;1306;22884;-82
2022/11/28 10:53:44;;;;;;;27.80;21.60;;;;;;;5.50;69.33;101194.30;106794;1309;22085;-80
2022/11/28 10:56:30;;;;;;;30.20;22.30;;;;;;;5.32;69.54;101197.88;106828;1307;22210;-82
2022/11/28 10:59:01;;;;;;;29.60;24.00;;;;;;;5.25;70.11;101194.91;106938;1305;22092;-81
2022/11/28 11:01:33;;;;;;;31.40;23.80;;;;;;;5.14;69.95;101198.11;106752;1301;22112;-81
2022/11/28 11:04:00;;;;;;;29.60;23.40;;;;;;;5.07;70.46;101195.50;106823;1306;22100;-81
2022/11/28 11:06:27;;;;;;;32.50;24.70;;;;;;;5.07;70.75;101193.77;106840;1306;22063;-80
2022/11/28 11:09:11;;;;;;;29.80;22.70;;;;;;;5.04;70.72;101191.58;106772;1306;22237;-81
2022/11/28 11:11:51;;;;;;;34.90;24.40;;;;;;;5.12;71.26;101193.01;106902;1306;22156;-80
2022/11/28 11:14:33;;;;;;;27.10;22.70;;;;;;;5.19;70.92;101191.62;107051;1306;22068;-80
2022/11/28 11:17:00;;;;;;;31.30;23.50;;;;;;;5.22;71.12;101191.52;107186;1306;22095;-80
2022/11/28 11:19:33;;;;;;;31.60;24.70;;;;;;;5.24;71.04;101193.30;107115;1299;22103;-79
2022/11/28 11:22:11;;;;;;;32.20;25.30;;;;;;;5.24;71.06;101191.22;107087;1301;22080;-79
2022/11/28 11:24:41;;;;;;;33.80;24.90;;;;;;;5.28;71.22;101188.17;107058;1298;22072;-80
2022/11/28 11:27:20;;;;;;;32.30;25.30;;;;;;;5.32;71.33;101187.39;106974;1305;22676;-81
2022/11/28 11:29:48;;;;;;;30.90;23.90;;;;;;;5.35;70.98;101189.41;106985;1304;22823;-80
2022/11/28 11:32:25;;;;;;;35.50;25.50;;;;;;;5.32;71.02;101186.00;106761;1306;22093;-82
2022/11/28 11:34:54;;;;;;;35.10;26.40;;;;;;;5.34;71.04;101190.08;106949;1298;22152;-78
2022/11/28 11:37:30;;;;;;;34.30;25.70;;;;;;;5.34;70.90;101191.13;106876;1306;22083;-79